createdAt,value
2016-08-19T00:00:08.905Z,0
2016-08-19T00:01:08.180Z,0
2016-08-19T00:02:08.181Z,0
2016-08-19T00:03:07.464Z,0
2016-08-19T00:04:08.175Z,0
2016-08-19T00:05:08.146Z,0
2016-08-19T00:06:08.844Z,0
2016-08-19T00:07:08.124Z,0
2016-08-19T00:08:08.132Z,0
2016-08-19T00:09:08.814Z,0
2016-08-19T00:10:08.803Z,0
2016-08-19T00:11:07.377Z,0
2016-08-19T00:12:08.082Z,0
2016-08-19T00:13:08.767Z,0
2016-08-19T00:14:07.347Z,0
2016-08-19T00:15:08.062Z,0
2016-08-19T00:16:09.737Z,0
2016-08-19T00:17:07.323Z,0
2016-08-19T00:18:08.030Z,0
2016-08-19T00:19:08.011Z,0
2016-08-19T00:20:07.998Z,0
2016-08-19T00:21:08.698Z,0
2016-08-19T00:22:07.985Z,0
2016-08-19T00:23:07.987Z,0
2016-08-19T00:24:08.682Z,0
2016-08-19T00:25:07.242Z,0
2016-08-19T00:26:08.666Z,0
2016-08-19T00:27:07.225Z,0
2016-08-19T00:28:07.922Z,0
2016-08-19T00:29:09.333Z,0
2016-08-19T00:30:07.898Z,0
2016-08-19T00:31:08.604Z,0
2016-08-19T00:32:07.892Z,0
2016-08-19T00:33:08.580Z,0
2016-08-19T00:34:08.570Z,0
2016-08-19T00:35:07.854Z,0
2016-08-19T00:36:07.842Z,0
2016-08-19T00:37:07.125Z,0
2016-08-19T00:38:07.825Z,0
2016-08-19T00:39:08.525Z,0
2016-08-19T00:40:07.800Z,0
2016-08-19T00:41:07.794Z,0
2016-08-19T00:42:07.776Z,0
2016-08-19T00:43:07.784Z,0
2016-08-19T00:44:07.761Z,0
2016-08-19T00:45:07.756Z,0
2016-08-19T00:46:07.041Z,0
2016-08-19T00:47:07.030Z,0
2016-08-19T00:48:08.430Z,0
2016-08-19T00:49:07.004Z,0
2016-08-19T00:50:07.711Z,0
2016-08-19T00:51:06.985Z,0
2016-08-19T00:52:08.388Z,0
2016-08-19T00:53:07.675Z,0
2016-08-19T00:54:07.668Z,0
2016-08-19T00:55:07.663Z,0
2016-08-19T00:56:08.356Z,0
2016-08-19T00:57:07.633Z,0
2016-08-19T00:58:06.916Z,0
2016-08-19T00:59:07.614Z,0
2016-08-19T01:00:07.603Z,0
2016-08-19T01:01:08.302Z,0
2016-08-19T01:02:07.587Z,0
2016-08-19T01:03:06.874Z,0
2016-08-19T01:04:06.857Z,0
2016-08-19T01:05:07.555Z,0
2016-08-19T01:06:08.249Z,0
2016-08-19T01:07:07.535Z,0
2016-08-19T01:08:07.525Z,0
2016-08-19T01:09:08.227Z,0
2016-08-19T01:10:07.506Z,0
2016-08-19T01:11:07.485Z,0
2016-08-19T01:12:08.188Z,0
2016-08-19T01:13:08.894Z,0
2016-08-19T01:14:08.891Z,0
2016-08-19T01:15:08.872Z,0
2016-08-19T01:16:08.156Z,0
2016-08-19T01:17:06.728Z,0
2016-08-19T01:18:07.416Z,0
2016-08-19T01:19:08.826Z,0
2016-08-19T01:20:08.112Z,0
2016-08-19T01:21:08.813Z,0
2016-08-19T01:22:08.090Z,0
2016-08-19T01:23:08.083Z,0
2016-08-19T01:24:08.073Z,0
2016-08-19T01:25:06.645Z,0
2016-08-19T01:26:08.046Z,0
2016-08-19T01:27:08.037Z,0
2016-08-19T01:28:08.033Z,0
2016-08-19T01:29:06.609Z,0
2016-08-19T01:30:07.295Z,0
2016-08-19T01:31:08.002Z,0
2016-08-19T01:32:08.694Z,0
2016-08-19T01:33:07.274Z,0
2016-08-19T01:34:06.550Z,0
2016-08-19T01:35:06.541Z,0
2016-08-19T01:36:09.356Z,0
2016-08-19T01:37:07.947Z,0
2016-08-19T01:38:07.219Z,0
2016-08-19T01:39:07.917Z,0
2016-08-19T01:40:06.486Z,0
2016-08-19T01:41:07.197Z,0
2016-08-19T01:42:07.191Z,0
2016-08-19T01:43:07.170Z,0
2016-08-19T01:44:06.459Z,0
2016-08-19T01:45:08.560Z,0
2016-08-19T01:46:07.137Z,0
2016-08-19T01:47:07.830Z,0
2016-08-19T01:48:07.114Z,0
2016-08-19T01:49:07.107Z,0
2016-08-19T01:50:07.799Z,0
2016-08-19T01:51:07.093Z,0
2016-08-19T01:52:06.373Z,0
2016-08-19T01:53:07.769Z,0
2016-08-19T01:54:06.346Z,0
2016-08-19T01:55:07.742Z,0
2016-08-19T01:56:08.451Z,0
2016-08-19T01:57:07.033Z,0
2016-08-19T01:58:07.012Z,0
2016-08-19T01:59:07.703Z,0
2016-08-19T02:00:06.282Z,0
2016-08-19T02:01:06.976Z,0
2016-08-19T02:02:07.673Z,0
2016-08-19T02:03:06.959Z,0
2016-08-19T02:04:07.663Z,0
2016-08-19T02:05:06.948Z,0
2016-08-19T02:06:06.940Z,0
2016-08-19T02:07:06.206Z,0
2016-08-19T02:08:06.912Z,0
2016-08-19T02:09:07.613Z,0
2016-08-19T02:10:06.180Z,0
2016-08-19T02:11:06.875Z,0
2016-08-19T02:12:06.863Z,0
2016-08-19T02:13:06.144Z,0
2016-08-19T02:15:06.125Z,0
2016-08-19T02:16:07.523Z,0
2016-08-19T02:17:06.818Z,0
2016-08-19T02:18:07.506Z,0
2016-08-19T02:19:07.495Z,0
2016-08-19T02:20:06.785Z,0
2016-08-19T02:21:06.766Z,0
2016-08-19T02:22:06.767Z,0
2016-08-19T02:23:06.747Z,0
2016-08-19T02:24:06.024Z,0
2016-08-19T02:25:07.439Z,0
2016-08-19T02:26:06.017Z,0
2016-08-19T02:27:07.414Z,0
2016-08-19T02:28:07.400Z,0
2016-08-19T02:29:07.387Z,0
2016-08-19T02:30:05.973Z,0
2016-08-19T02:31:05.953Z,0
2016-08-19T02:32:05.947Z,0
2016-08-19T02:33:06.649Z,0
2016-08-19T02:34:08.048Z,0
2016-08-19T02:35:07.336Z,0
2016-08-19T02:36:06.605Z,0
2016-08-19T02:37:06.605Z,0
2016-08-19T02:38:05.885Z,0
2016-08-19T02:39:05.874Z,0
2016-08-19T02:40:06.575Z,0
2016-08-19T02:41:05.863Z,0
2016-08-19T02:42:05.851Z,0
2016-08-19T02:43:05.828Z,0
2016-08-19T02:44:07.238Z,0
2016-08-19T02:45:06.522Z,0
2016-08-19T02:46:05.808Z,0
2016-08-19T02:47:06.500Z,0
2016-08-19T02:48:05.780Z,0
2016-08-19T02:49:05.770Z,0
2016-08-19T02:50:05.773Z,0
2016-08-19T02:51:06.455Z,0
2016-08-19T02:52:07.872Z,0
2016-08-19T02:53:07.137Z,0
2016-08-19T02:54:07.136Z,0
2016-08-19T02:55:05.697Z,0
2016-08-19T02:56:07.110Z,0
2016-08-19T02:57:05.693Z,0
2016-08-19T02:58:05.681Z,0
2016-08-19T02:59:05.659Z,0
2016-08-19T03:00:05.646Z,0
2016-08-19T03:01:05.637Z,0
2016-08-19T03:02:06.338Z,0
2016-08-19T03:03:06.324Z,0
2016-08-19T03:04:06.315Z,0
2016-08-19T03:05:07.008Z,0
2016-08-19T03:06:05.588Z,0
2016-08-19T03:07:06.293Z,0
2016-08-19T03:08:06.991Z,0
2016-08-19T03:09:06.291Z,0
2016-08-19T03:10:07.676Z,0
2016-08-19T03:11:07.677Z,0
2016-08-19T03:12:06.943Z,0
2016-08-19T03:13:06.219Z,0
2016-08-19T03:14:06.208Z,0
2016-08-19T03:15:06.212Z,0
2016-08-19T03:16:06.905Z,0
2016-08-19T03:17:06.184Z,0
2016-08-19T03:18:07.618Z,0
2016-08-19T03:19:06.161Z,0
2016-08-19T03:20:06.859Z,0
2016-08-19T03:21:06.129Z,0
2016-08-19T03:22:06.127Z,0
2016-08-19T03:23:06.119Z,0
2016-08-19T03:24:05.391Z,0
2016-08-19T03:25:06.805Z,0
2016-08-19T03:26:06.084Z,0
2016-08-19T03:27:06.778Z,0
2016-08-19T03:28:06.056Z,0
2016-08-19T03:29:06.048Z,0
2016-08-19T03:30:06.750Z,0
2016-08-19T03:31:05.325Z,0
2016-08-19T03:32:05.311Z,0
2016-08-19T03:33:06.724Z,0
2016-08-19T03:34:06.694Z,0
2016-08-19T03:35:06.697Z,0
2016-08-19T03:36:05.970Z,0
2016-08-19T03:37:06.682Z,0
2016-08-19T03:38:05.244Z,0
2016-08-19T03:39:05.230Z,0
2016-08-19T03:40:05.222Z,0
2016-08-19T03:41:07.327Z,0
2016-08-19T03:42:05.901Z,0
2016-08-19T03:43:05.898Z,0
2016-08-19T03:44:05.179Z,0
2016-08-19T03:45:05.169Z,0
2016-08-19T03:46:05.859Z,0
2016-08-19T03:47:06.553Z,0
2016-08-19T03:48:05.847Z,0
2016-08-19T03:49:07.247Z,0
2016-08-19T03:50:05.117Z,0
2016-08-19T03:51:05.809Z,0
2016-08-19T03:52:05.793Z,0
2016-08-19T03:53:06.518Z,0
2016-08-19T03:54:06.512Z,0
2016-08-19T03:55:05.074Z,0
2016-08-19T03:56:05.052Z,0
2016-08-19T03:57:06.460Z,0
2016-08-19T03:58:05.023Z,0
2016-08-19T03:59:05.735Z,0
2016-08-19T04:00:06.422Z,0
2016-08-19T04:01:05.709Z,0
2016-08-19T04:02:06.401Z,0
2016-08-19T04:03:05.706Z,0
2016-08-19T04:04:07.082Z,0
2016-08-19T04:05:05.653Z,0
2016-08-19T04:06:06.363Z,0
2016-08-19T04:07:05.641Z,0
2016-08-19T04:08:04.925Z,0
2016-08-19T04:09:05.610Z,0
2016-08-19T04:10:05.620Z,0
2016-08-19T04:11:04.883Z,0
2016-08-19T04:12:07.707Z,0
2016-08-19T04:13:05.572Z,0
2016-08-19T04:14:06.266Z,0
2016-08-19T04:15:05.552Z,0
2016-08-19T04:16:04.824Z,0
2016-08-19T04:17:05.528Z,0
2016-08-19T04:18:06.931Z,0
2016-08-19T04:19:05.511Z,0
2016-08-19T04:20:06.911Z,0
2016-08-19T04:21:06.899Z,0
2016-08-19T04:22:05.471Z,0
2016-08-19T04:23:06.166Z,5
2016-08-19T04:24:05.459Z,5
2016-08-19T04:25:05.437Z,5
2016-08-19T04:26:05.422Z,5
2016-08-19T04:27:06.954Z,5
2016-08-19T04:28:06.131Z,5
2016-08-19T04:29:05.385Z,5
2016-08-19T04:30:06.105Z,5
2016-08-19T04:31:04.658Z,5
2016-08-19T04:32:06.122Z,5
2016-08-19T04:33:05.359Z,10
2016-08-19T04:34:05.336Z,10
2016-08-19T04:35:06.035Z,10
2016-08-19T04:36:06.728Z,10
2016-08-19T04:37:04.592Z,10
2016-08-19T04:38:06.002Z,10
2016-08-19T04:39:06.702Z,10
2016-08-19T04:40:05.985Z,10
2016-08-19T04:41:05.263Z,15
2016-08-19T04:42:05.949Z,15
2016-08-19T04:43:04.541Z,15
2016-08-19T04:44:05.231Z,15
2016-08-19T04:45:05.214Z,15
2016-08-19T04:46:05.206Z,15
2016-08-19T04:47:05.198Z,15
2016-08-19T04:48:07.302Z,15
2016-08-19T04:49:05.177Z,20
2016-08-19T04:50:05.173Z,20
2016-08-19T04:51:05.148Z,20
2016-08-19T04:52:04.430Z,20
2016-08-19T04:53:05.128Z,20
2016-08-19T04:54:05.824Z,20
2016-08-19T04:55:05.803Z,20
2016-08-19T04:56:06.506Z,20
2016-08-19T04:57:05.083Z,25
2016-08-19T04:58:06.501Z,25
2016-08-19T04:59:04.354Z,25
2016-08-19T05:00:05.049Z,25
2016-08-19T05:01:05.749Z,25
2016-08-19T05:02:05.029Z,25
2016-08-19T05:03:05.009Z,25
2016-08-19T05:04:05.725Z,25
2016-08-19T05:05:05.696Z,30
2016-08-19T05:06:05.687Z,30
2016-08-19T05:07:04.271Z,30
2016-08-19T05:08:04.958Z,30
2016-08-19T05:09:04.949Z,30
2016-08-19T05:10:04.941Z,30
2016-08-19T05:11:04.212Z,30
2016-08-19T05:12:06.327Z,30
2016-08-19T05:13:07.034Z,35
2016-08-19T05:14:05.609Z,35
2016-08-19T05:15:04.881Z,35
2016-08-19T05:16:04.868Z,35
2016-08-19T05:17:05.574Z,35
2016-08-19T05:18:05.555Z,35
2016-08-19T05:19:04.129Z,35
2016-08-19T05:20:04.825Z,35
2016-08-19T05:21:04.816Z,35
2016-08-19T05:22:04.803Z,40
2016-08-19T05:23:05.495Z,40
2016-08-19T05:24:04.072Z,40
2016-08-19T05:25:04.771Z,40
2016-08-19T05:26:05.668Z,40
2016-08-19T05:27:04.043Z,40
2016-08-19T05:28:04.034Z,40
2016-08-19T05:29:06.135Z,40
2016-08-19T05:30:04.719Z,40
2016-08-19T05:31:03.996Z,40
2016-08-19T05:32:04.698Z,45
2016-08-19T05:33:04.678Z,45
2016-08-19T05:34:03.973Z,45
2016-08-19T05:35:06.083Z,45
2016-08-19T05:36:05.383Z,45
2016-08-19T05:37:04.640Z,45
2016-08-19T05:38:04.626Z,45
2016-08-19T05:39:04.618Z,45
2016-08-19T05:40:04.609Z,45
2016-08-19T05:41:04.597Z,45
2016-08-19T05:42:05.293Z,45
2016-08-19T05:43:05.280Z,45
2016-08-19T05:44:05.982Z,50
2016-08-19T05:45:05.261Z,50
2016-08-19T05:46:03.834Z,50
2016-08-19T05:47:03.828Z,50
2016-08-19T05:48:05.939Z,50
2016-08-19T05:49:05.972Z,50
2016-08-19T05:50:04.506Z,50
2016-08-19T05:51:06.611Z,50
2016-08-19T05:52:05.194Z,50
2016-08-19T05:53:05.179Z,50
2016-08-19T05:54:05.890Z,50
2016-08-19T05:55:05.873Z,55
2016-08-19T05:56:04.445Z,55
2016-08-19T05:57:05.161Z,55
2016-08-19T05:58:05.122Z,55
2016-08-19T05:59:19.316Z,55
2016-08-19T06:00:04.392Z,55
2016-08-19T06:01:04.381Z,55
2016-08-19T06:02:03.681Z,55
2016-08-19T06:03:04.367Z,55
2016-08-19T06:04:05.062Z,55
2016-08-19T06:05:03.638Z,55
2016-08-19T06:06:05.045Z,55
2016-08-19T06:07:03.631Z,60
2016-08-19T06:08:04.319Z,60
2016-08-19T06:09:04.305Z,60
2016-08-19T06:10:04.311Z,60
2016-08-19T06:11:04.275Z,60
2016-08-19T06:12:05.680Z,60
2016-08-19T06:13:04.256Z,60
2016-08-19T06:14:04.970Z,60
2016-08-19T06:15:04.240Z,60
2016-08-19T06:16:04.234Z,60
2016-08-19T06:17:04.217Z,60
2016-08-19T06:18:03.500Z,60
2016-08-19T06:19:04.204Z,65
2016-08-19T06:20:03.481Z,65
2016-08-19T06:21:03.468Z,65
2016-08-19T06:22:04.171Z,65
2016-08-19T06:23:03.448Z,65
2016-08-19T06:24:04.146Z,65
2016-08-19T06:25:04.845Z,65
2016-08-19T06:26:04.832Z,65
2016-08-19T06:27:03.409Z,65
2016-08-19T06:28:04.107Z,65
2016-08-19T06:29:04.806Z,65
2016-08-19T06:30:04.085Z,65
2016-08-19T06:31:04.071Z,65
2016-08-19T06:32:04.058Z,70
2016-08-19T06:33:04.055Z,70
2016-08-19T06:34:04.751Z,70
2016-08-19T06:35:04.037Z,70
2016-08-19T06:36:04.730Z,70
2016-08-19T06:37:04.022Z,70
2016-08-19T06:38:03.298Z,70
2016-08-19T06:39:03.995Z,70
2016-08-19T06:40:04.701Z,70
2016-08-19T06:41:03.971Z,70
2016-08-19T06:42:03.269Z,70
2016-08-19T06:43:03.953Z,70
2016-08-19T06:44:03.235Z,70
2016-08-19T06:45:04.649Z,70
2016-08-19T06:46:03.930Z,70
2016-08-19T06:47:03.909Z,70
2016-08-19T06:48:04.615Z,70
2016-08-19T06:49:05.322Z,75
2016-08-19T06:50:04.597Z,75
2016-08-19T06:51:03.884Z,75
2016-08-19T06:52:05.285Z,75
2016-08-19T06:53:03.871Z,75
2016-08-19T06:54:03.850Z,75
2016-08-19T06:55:03.147Z,75
2016-08-19T06:56:04.555Z,75
2016-08-19T06:57:03.117Z,75
2016-08-19T06:58:04.517Z,75
2016-08-19T06:59:03.095Z,75
2016-08-19T07:00:03.084Z,75
2016-08-19T07:01:03.780Z,75
2016-08-19T07:02:05.206Z,75
2016-08-19T07:03:03.052Z,75
2016-08-19T07:04:03.757Z,75
2016-08-19T07:05:04.449Z,75
2016-08-19T07:06:04.455Z,75
2016-08-19T07:07:03.729Z,75
2016-08-19T07:08:03.011Z,75
2016-08-19T07:09:03.005Z,75
2016-08-19T07:10:03.710Z,75
2016-08-19T07:11:02.985Z,75
2016-08-19T07:12:02.985Z,75
2016-08-19T07:13:05.095Z,75
2016-08-19T07:14:04.372Z,75
2016-08-19T07:15:02.954Z,80
2016-08-19T07:16:03.635Z,80
2016-08-19T07:17:05.042Z,80
2016-08-19T07:18:04.349Z,80
2016-08-19T07:19:04.319Z,80
2016-08-19T07:20:03.600Z,80
2016-08-19T07:21:02.885Z,80
2016-08-19T07:22:04.296Z,80
2016-08-19T07:23:02.872Z,80
2016-08-19T07:24:02.862Z,80
2016-08-19T07:25:03.561Z,80
2016-08-19T07:26:02.852Z,80
2016-08-19T07:27:03.541Z,80
2016-08-19T07:28:03.534Z,80
2016-08-19T07:29:04.237Z,85
2016-08-19T07:30:03.519Z,85
2016-08-19T07:31:03.755Z,85
2016-08-19T07:32:04.207Z,85
2016-08-19T07:33:04.199Z,85
2016-08-19T07:34:04.193Z,85
2016-08-19T07:35:03.481Z,85
2016-08-19T07:36:02.749Z,85
2016-08-19T07:37:04.169Z,85
2016-08-19T07:38:04.156Z,85
2016-08-19T07:39:04.152Z,85
2016-08-19T07:40:02.745Z,85
2016-08-19T07:41:03.417Z,85
2016-08-19T07:42:02.711Z,90
2016-08-19T07:43:04.108Z,90
2016-08-19T07:44:04.105Z,90
2016-08-19T07:45:04.096Z,90
2016-08-19T07:46:03.380Z,90
2016-08-19T07:47:03.372Z,90
2016-08-19T07:48:03.362Z,90
2016-08-19T07:49:03.387Z,90
2016-08-19T07:50:04.051Z,95
2016-08-19T07:51:03.338Z,100
2016-08-19T07:52:02.619Z,95
2016-08-19T07:53:03.326Z,95
2016-08-19T07:54:04.010Z,95
2016-08-19T07:55:03.295Z,95
2016-08-19T07:56:03.302Z,95
2016-08-19T07:57:03.995Z,95
2016-08-19T07:58:04.692Z,100
2016-08-19T07:59:02.565Z,100
2016-08-19T08:00:03.261Z,100
2016-08-19T08:01:04.671Z,100
2016-08-19T08:02:02.531Z,100
2016-08-19T08:03:03.231Z,105
2016-08-19T08:04:02.521Z,105
2016-08-19T08:05:03.928Z,105
2016-08-19T08:06:03.916Z,105
2016-08-19T08:07:03.917Z,110
2016-08-19T08:08:04.608Z,110
2016-08-19T08:09:03.894Z,110
2016-08-19T08:10:03.171Z,110
2016-08-19T08:11:02.469Z,110
2016-08-19T08:12:03.198Z,115
2016-08-19T08:13:03.864Z,115
2016-08-19T08:14:03.157Z,120
2016-08-19T08:15:03.138Z,160
2016-08-19T08:16:03.129Z,705
2016-08-19T08:17:02.433Z,1250
2016-08-19T08:18:02.411Z,1255
2016-08-19T08:19:04.532Z,1270
2016-08-19T08:20:03.817Z,1280
2016-08-19T08:21:03.101Z,1315
2016-08-19T08:22:03.098Z,1380
2016-08-19T08:23:03.090Z,1375
2016-08-19T08:24:03.081Z,1295
2016-08-19T08:25:04.489Z,1205
2016-08-19T08:26:03.768Z,1295
2016-08-19T08:27:03.064Z,1370
2016-08-19T08:28:03.763Z,1355
2016-08-19T08:29:03.047Z,1000
2016-08-19T08:30:03.757Z,640
2016-08-19T08:31:03.043Z,365
2016-08-19T08:32:03.044Z,275
2016-08-19T08:33:03.743Z,220
2016-08-19T08:34:03.026Z,260
2016-08-19T08:35:03.735Z,490
2016-08-19T08:36:03.732Z,440
2016-08-19T08:37:02.313Z,330
2016-08-19T08:38:03.718Z,715
2016-08-19T08:39:02.306Z,640
2016-08-19T08:40:04.413Z,700
2016-08-19T08:41:03.006Z,630
2016-08-19T08:42:02.294Z,755
2016-08-19T08:43:03.701Z,610
2016-08-19T08:44:03.701Z,280
2016-08-19T08:45:02.980Z,365
2016-08-19T08:46:02.276Z,490
2016-08-19T08:47:02.976Z,315
2016-08-19T08:48:03.688Z,285
2016-08-19T08:49:02.969Z,150
2016-08-19T08:50:02.965Z,170
2016-08-19T08:51:03.671Z,170
2016-08-19T08:52:03.662Z,175
2016-08-19T08:53:04.358Z,170
2016-08-19T08:54:03.671Z,170
2016-08-19T08:55:02.237Z,170
2016-08-19T08:56:04.352Z,160
2016-08-19T08:57:03.140Z,155
2016-08-19T08:58:02.941Z,160
2016-08-19T08:59:02.923Z,170
2016-08-19T09:00:02.218Z,165
2016-08-19T09:01:02.913Z,160
2016-08-19T09:02:02.905Z,160
2016-08-19T09:03:03.604Z,160
2016-08-19T09:04:03.626Z,155
2016-08-19T09:05:02.891Z,155
2016-08-19T09:06:03.603Z,160
2016-08-19T09:07:03.593Z,160
2016-08-19T09:08:02.169Z,160
2016-08-19T09:09:03.586Z,170
2016-08-19T09:10:02.868Z,180
2016-08-19T09:11:02.873Z,200
2016-08-19T09:12:02.862Z,340
2016-08-19T09:13:02.848Z,650
2016-08-19T09:14:02.855Z,775
2016-08-19T09:15:04.257Z,450
2016-08-19T09:16:03.544Z,225
2016-08-19T09:17:02.842Z,170
2016-08-19T09:18:02.824Z,155
2016-08-19T09:19:02.119Z,155
2016-08-19T09:20:02.823Z,155
2016-08-19T09:21:03.525Z,155
2016-08-19T09:22:02.922Z,160
2016-08-19T09:23:03.521Z,160
2016-08-19T09:24:03.502Z,165
2016-08-19T09:25:04.208Z,165
2016-08-19T09:26:02.790Z,160
2016-08-19T09:27:04.902Z,245
2016-08-19T09:28:02.068Z,280
2016-08-19T09:29:02.070Z,250
2016-08-19T09:30:02.762Z,250
2016-08-19T09:31:02.771Z,390
2016-08-19T09:32:02.754Z,175
2016-08-19T09:33:02.748Z,170
2016-08-19T09:34:02.037Z,165
2016-08-19T09:35:02.734Z,165
2016-08-19T09:36:02.735Z,165
2016-08-19T09:37:02.743Z,165
2016-08-19T09:38:02.025Z,165
2016-08-19T09:39:02.725Z,170
2016-08-19T09:40:02.004Z,170
2016-08-19T09:41:02.010Z,170
2016-08-19T09:42:02.713Z,170
2016-08-19T09:43:04.118Z,175
2016-08-19T09:44:04.120Z,175
2016-08-19T09:45:04.815Z,175
2016-08-19T09:46:04.114Z,175
2016-08-19T09:47:03.383Z,180
2016-08-19T09:48:03.390Z,180
2016-08-19T09:49:03.369Z,180
2016-08-19T09:50:03.367Z,175
2016-08-19T09:51:01.947Z,175
2016-08-19T09:52:01.938Z,180
2016-08-19T09:53:04.063Z,180
2016-08-19T09:54:02.635Z,185
2016-08-19T09:55:01.924Z,190
2016-08-19T09:56:03.335Z,190
2016-08-19T09:57:02.642Z,185
2016-08-19T09:58:03.328Z,200
2016-08-19T09:59:03.322Z,205
2016-08-19T10:00:02.597Z,230
2016-08-19T10:01:02.624Z,220
2016-08-19T10:02:02.601Z,280
2016-08-19T10:03:01.887Z,280
2016-08-19T10:04:01.884Z,250
2016-08-19T10:05:03.995Z,340
2016-08-19T10:06:01.870Z,400
2016-08-19T10:07:03.979Z,235
2016-08-19T10:08:03.263Z,210
2016-08-19T10:09:01.852Z,235
2016-08-19T10:10:03.968Z,280
2016-08-19T10:11:02.554Z,255
2016-08-19T10:12:02.546Z,255
2016-08-19T10:13:03.230Z,325
2016-08-19T10:14:02.528Z,400
2016-08-19T10:15:03.240Z,480
2016-08-19T10:16:02.519Z,405
2016-08-19T10:17:03.436Z,305
2016-08-19T10:18:03.216Z,270
2016-08-19T10:19:02.517Z,280
2016-08-19T10:20:02.497Z,265
2016-08-19T10:21:03.208Z,260
2016-08-19T10:22:02.493Z,260
2016-08-19T10:23:04.601Z,330
2016-08-19T10:24:01.764Z,365
2016-08-19T10:25:03.884Z,300
2016-08-19T10:26:02.473Z,245
2016-08-19T10:27:03.882Z,240
2016-08-19T10:28:03.860Z,235
2016-08-19T10:29:02.444Z,235
2016-08-19T10:30:03.869Z,270
2016-08-19T10:31:03.145Z,295
2016-08-19T10:32:04.564Z,445
2016-08-19T10:33:01.722Z,550
2016-08-19T10:34:03.131Z,455
2016-08-19T10:35:03.830Z,415
2016-08-19T10:36:03.837Z,460
2016-08-19T10:37:01.698Z,795
2016-08-19T10:38:03.119Z,1205
2016-08-19T10:39:03.099Z,1395
2016-08-19T10:40:01.676Z,1515
2016-08-19T10:41:03.105Z,1345
2016-08-19T10:42:02.404Z,1385
2016-08-19T10:43:03.092Z,1155
2016-08-19T10:44:02.385Z,690
2016-08-19T10:45:03.076Z,760
2016-08-19T10:46:03.087Z,680
2016-08-19T10:47:01.657Z,805
2016-08-19T10:48:02.355Z,480
2016-08-19T10:49:02.356Z,575
2016-08-19T10:50:02.353Z,985
2016-08-19T10:51:03.774Z,1690
2016-08-19T10:52:03.759Z,1970
2016-08-19T10:53:02.348Z,1965
2016-08-19T10:54:03.051Z,1955
2016-08-19T10:55:03.778Z,1975
2016-08-19T10:56:03.771Z,1760
2016-08-19T10:57:03.061Z,1625
2016-08-19T10:58:03.048Z,1735
2016-08-19T10:59:03.060Z,1810
2016-08-19T11:00:03.753Z,1385
2016-08-19T11:01:02.363Z,1450
2016-08-19T11:02:02.350Z,1975
2016-08-19T11:03:02.334Z,1980
2016-08-19T11:04:01.626Z,1995
2016-08-19T11:05:02.342Z,1985
2016-08-19T11:06:02.350Z,1800
2016-08-19T11:07:02.343Z,1610
2016-08-19T11:08:03.051Z,1745
2016-08-19T11:09:04.466Z,1850
2016-08-19T11:10:02.334Z,1780
2016-08-19T11:11:03.056Z,1940
2016-08-19T11:12:02.338Z,1845
2016-08-19T11:13:03.765Z,1530
2016-08-19T11:14:03.756Z,1445
2016-08-19T11:15:02.346Z,1770
2016-08-19T11:16:03.066Z,1920
2016-08-19T11:17:03.064Z,1770
2016-08-19T11:18:02.367Z,1570
2016-08-19T11:19:01.648Z,1640
2016-08-19T11:20:02.355Z,1665
2016-08-19T11:21:03.777Z,1845
2016-08-19T11:22:03.778Z,2015
2016-08-19T11:23:03.781Z,2015
2016-08-19T11:24:03.085Z,1665
2016-08-19T11:25:02.380Z,1670
2016-08-19T11:26:03.308Z,1820
2016-08-19T11:27:03.091Z,1680
2016-08-19T11:28:03.084Z,1740
2016-08-19T11:29:03.081Z,1745
2016-08-19T11:30:01.679Z,1850
2016-08-19T11:31:02.391Z,1735
2016-08-19T11:32:03.103Z,1810
2016-08-19T11:34:03.110Z,2025
2016-08-19T11:35:03.109Z,1970
2016-08-19T11:36:03.108Z,1640
2016-08-19T11:37:04.550Z,1825
2016-08-19T11:38:03.158Z,1880
2016-08-19T11:39:03.135Z,1880
2016-08-19T11:40:02.419Z,1770
2016-08-19T11:41:02.432Z,1900
2016-08-19T11:42:03.139Z,1940
2016-08-19T11:43:03.871Z,1870
2016-08-19T11:44:03.854Z,1840
2016-08-19T11:45:03.150Z,1735
2016-08-19T11:46:03.880Z,1810
2016-08-19T11:47:03.167Z,1985
2016-08-19T11:48:03.193Z,1690
2016-08-19T11:49:03.886Z,1485
2016-08-19T11:50:03.179Z,1465
2016-08-19T11:51:02.461Z,1175
2016-08-19T11:52:03.889Z,2025
2016-08-19T11:53:02.483Z,2220
2016-08-19T11:54:02.486Z,2310
2016-08-19T11:55:02.483Z,2280
2016-08-19T11:56:03.194Z,2295
2016-08-19T11:57:01.782Z,2255
2016-08-19T11:58:03.202Z,2105
2016-08-19T11:59:01.793Z,1970
2016-08-19T12:00:01.814Z,2100
2016-08-19T12:01:03.918Z,2160
2016-08-19T12:02:03.226Z,2130
2016-08-19T12:03:04.656Z,2215
2016-08-19T12:04:02.529Z,2185
2016-08-19T12:05:03.942Z,2170
2016-08-19T12:06:03.946Z,2190
2016-08-19T12:07:02.529Z,2195
2016-08-19T12:08:02.554Z,1775
2016-08-19T12:09:02.552Z,1890
2016-08-19T12:10:03.275Z,1885
2016-08-19T12:11:01.850Z,1830
2016-08-19T12:12:03.965Z,1775
2016-08-19T12:13:03.967Z,1890
2016-08-19T12:14:04.014Z,1860
2016-08-19T12:15:01.866Z,1895
2016-08-19T12:16:02.589Z,2015
2016-08-19T12:17:02.584Z,2090
2016-08-19T12:18:02.598Z,2055
2016-08-19T12:19:03.309Z,2045
2016-08-19T12:20:03.310Z,2035
2016-08-19T12:21:02.606Z,2055
2016-08-19T12:22:02.620Z,2100
2016-08-19T12:23:01.902Z,2110
2016-08-19T12:24:02.619Z,2090
2016-08-19T12:25:03.338Z,2075
2016-08-19T12:26:02.629Z,2050
2016-08-19T12:27:04.776Z,2025
2016-08-19T12:28:03.359Z,2005
2016-08-19T12:29:03.362Z,2020
2016-08-19T12:30:02.707Z,2045
2016-08-19T12:31:03.379Z,2025
2016-08-19T12:32:02.685Z,2000
2016-08-19T12:33:03.393Z,1965
2016-08-19T12:34:03.387Z,1870
2016-08-19T12:35:02.698Z,1790
2016-08-19T12:36:03.414Z,1755
2016-08-19T12:37:01.992Z,1705
2016-08-19T12:38:03.415Z,1735
2016-08-19T12:39:02.707Z,1755
2016-08-19T12:40:03.417Z,1795
2016-08-19T12:41:03.432Z,1835
2016-08-19T12:42:03.434Z,1795
2016-08-19T12:43:03.441Z,1815
2016-08-19T12:44:03.438Z,1800
2016-08-19T12:45:02.735Z,1800
2016-08-19T12:46:04.165Z,1815
2016-08-19T12:47:03.460Z,1815
2016-08-19T12:48:04.175Z,1785
2016-08-19T12:49:03.488Z,1765
2016-08-19T12:50:02.793Z,1765
2016-08-19T12:51:03.485Z,1800
2016-08-19T12:52:03.027Z,1780
2016-08-19T12:53:04.440Z,1755
2016-08-19T12:54:03.505Z,1680
2016-08-19T12:55:03.503Z,1745
2016-08-19T12:56:02.139Z,1715
2016-08-19T12:57:04.936Z,1720
2016-08-19T12:58:04.225Z,1685
2016-08-19T12:59:04.246Z,1670
2016-08-19T13:00:04.246Z,1665
2016-08-19T13:01:04.255Z,1685
2016-08-19T13:02:04.261Z,1720
2016-08-19T13:03:03.583Z,1735
2016-08-19T13:04:03.577Z,1750
2016-08-19T13:05:02.867Z,1745
2016-08-19T13:06:03.592Z,1780
2016-08-19T13:07:03.594Z,1730
2016-08-19T13:08:03.583Z,1725
2016-08-19T13:09:02.898Z,1645
2016-08-19T13:10:02.894Z,1625
2016-08-19T13:11:05.025Z,1615
2016-08-19T13:12:03.618Z,1635
2016-08-19T13:13:02.216Z,1640
2016-08-19T13:14:02.918Z,1655
2016-08-19T13:15:03.641Z,1690
2016-08-19T13:16:05.094Z,1725
2016-08-19T13:17:04.369Z,1720
2016-08-19T13:18:03.666Z,1720
2016-08-19T13:19:03.677Z,1700
2016-08-19T13:20:03.667Z,1675
2016-08-19T13:21:03.661Z,1590
2016-08-19T13:22:03.707Z,1490
2016-08-19T13:23:02.992Z,1470
2016-08-19T13:24:04.467Z,1430
2016-08-19T13:25:03.717Z,1485
2016-08-19T13:26:04.406Z,1460
2016-08-19T13:27:03.704Z,1490
2016-08-19T13:28:03.010Z,1540
2016-08-19T13:29:03.938Z,1520
2016-08-19T13:30:04.444Z,1480
2016-08-19T13:31:03.725Z,1460
2016-08-19T13:32:02.318Z,1405
2016-08-19T13:33:03.719Z,1375
2016-08-19T13:34:04.440Z,1315
2016-08-19T13:35:03.744Z,1245
2016-08-19T13:36:03.741Z,1240
2016-08-19T13:37:03.740Z,1300
2016-08-19T13:38:03.777Z,1220
2016-08-19T13:39:03.068Z,1145
2016-08-19T13:40:03.759Z,1120
2016-08-19T13:41:03.793Z,1050
2016-08-19T13:42:03.764Z,1140
2016-08-19T13:43:03.769Z,1195
2016-08-19T13:44:03.797Z,1340
2016-08-19T13:45:03.087Z,1430
2016-08-19T13:46:04.591Z,1485
2016-08-19T13:47:03.790Z,1525
2016-08-19T13:48:03.084Z,1540
2016-08-19T13:49:03.821Z,1555
2016-08-19T13:50:03.810Z,1510
2016-08-19T13:51:03.816Z,1505
2016-08-19T13:52:03.824Z,1450
2016-08-19T13:53:03.822Z,1480
2016-08-19T13:54:03.900Z,1255
2016-08-19T13:55:04.535Z,805
2016-08-19T13:56:04.567Z,1115
2016-08-19T13:57:03.838Z,1160
2016-08-19T13:58:04.540Z,1215
2016-08-19T13:59:04.558Z,1310
2016-08-19T14:00:03.559Z,1255
2016-08-19T14:01:03.857Z,565
2016-08-19T14:02:04.590Z,375
2016-08-19T14:03:03.144Z,350
2016-08-19T14:04:04.581Z,330
2016-08-19T14:05:03.161Z,330
2016-08-19T14:06:03.192Z,390